createdAt,value
2019-04-05T00:00:27.469Z,100372.70
2019-04-05T00:02:59.560Z,100367.46
2019-04-05T00:05:31.312Z,100368.26
2019-04-05T00:08:03.126Z,100367.64
2019-04-05T00:10:35.073Z,100363.66
2019-04-05T00:13:06.677Z,100365.30
2019-04-05T00:15:38.545Z,100370.75
2019-04-05T00:18:10.101Z,100369.55
2019-04-05T00:20:41.860Z,100368.66
2019-04-05T00:23:13.981Z,100365.57
2019-04-05T00:25:45.706Z,100367.88
2019-04-05T00:28:17.662Z,100374.54
2019-04-05T00:30:49.244Z,100371.44
2019-04-05T00:33:20.598Z,100370.14
2019-04-05T00:35:52.371Z,100369.66
2019-04-05T00:38:24.148Z,100372.88
2019-04-05T00:40:56.015Z,100372.39
2019-04-05T00:43:28.952Z,100374.27
2019-04-05T00:46:00.647Z,100371.70
2019-04-05T00:48:32.290Z,100373.39
2019-04-05T00:51:03.881Z,100377.42
2019-04-05T00:53:35.667Z,100372.93
2019-04-05T00:56:07.299Z,100379.48
2019-04-05T00:58:38.971Z,100379.44
2019-04-05T01:01:10.701Z,100381.56
2019-04-05T01:03:42.504Z,100381.34
2019-04-05T01:06:14.636Z,100374.70
2019-04-05T01:08:46.167Z,100375.09
2019-04-05T01:11:18.020Z,100374.86
2019-04-05T01:13:50.367Z,100379.66
2019-04-05T01:16:21.969Z,100378.44
2019-04-05T01:18:53.796Z,100372.26
2019-04-05T01:21:27.991Z,100375.39
2019-04-05T01:24:02.461Z,100376.22
2019-04-05T01:26:35.402Z,100376.27
2019-04-05T01:29:07.129Z,100375.09
2019-04-05T01:31:38.544Z,100377.72
2019-04-05T01:34:10.569Z,100386.06
2019-04-05T01:36:42.087Z,100381.70
2019-04-05T01:39:13.966Z,100381.25
2019-04-05T01:41:46.502Z,100383.89
2019-04-05T01:44:18.602Z,100386.58
2019-04-05T01:46:50.245Z,100378.73
2019-04-05T01:49:22.030Z,100377.52
2019-04-05T01:51:53.972Z,100380.26
2019-04-05T01:54:25.739Z,100380.34
2019-04-05T01:56:57.416Z,100375.54
2019-04-05T01:59:28.901Z,100376.90
2019-04-05T02:02:00.480Z,100383.81
2019-04-05T02:04:33.198Z,100383.91
2019-04-05T02:07:04.877Z,100382.63
2019-04-05T02:09:37.330Z,100392.21
2019-04-05T02:12:09.401Z,100391.67
2019-04-05T02:14:41.111Z,100390.06
2019-04-05T02:17:12.831Z,100393.96
2019-04-05T02:19:45.703Z,100399.22
2019-04-05T02:22:17.297Z,100396.69
2019-04-05T02:24:50.815Z,100404.20
2019-04-05T02:27:22.414Z,100405.02
2019-04-05T02:29:53.902Z,100403.26
2019-04-05T02:32:25.731Z,100397.97
2019-04-05T02:34:57.201Z,100402.95
2019-04-05T02:37:29.102Z,100398.49
2019-04-05T02:40:01.141Z,100402.94
2019-04-05T02:42:34.882Z,100402.97
2019-04-05T02:45:08.188Z,100406.02
2019-04-05T02:47:42.370Z,100390.73
2019-04-05T02:50:15.304Z,100406.41
2019-04-05T02:52:48.279Z,100406.44
2019-04-05T02:55:20.458Z,100402.50
2019-04-05T02:57:52.463Z,100401.22
2019-04-05T03:00:24.474Z,100394.69
2019-04-05T03:02:59.126Z,100397.30
2019-04-05T03:05:31.526Z,100407.75
2019-04-05T03:08:03.153Z,100412.07
2019-04-05T03:11:07.890Z,100407.80
2019-04-05T03:13:46.690Z,100410.86
2019-04-05T03:16:38.605Z,100411.80
2019-04-05T03:18:59.329Z,100413.59
2019-04-05T03:21:32.324Z,100410.08
2019-04-05T03:24:05.284Z,100416.66
2019-04-05T03:26:39.517Z,100421.05
2019-04-05T03:29:11.092Z,100421.98
2019-04-05T03:31:41.553Z,100417.22
2019-04-05T03:34:12.864Z,100414.14
2019-04-05T03:36:43.396Z,100417.20
2019-04-05T03:39:15.459Z,100418.50
2019-04-05T03:41:47.211Z,100417.23
2019-04-05T03:44:22.842Z,100419.81
2019-04-05T03:46:56.851Z,100418.95
2019-04-05T03:49:28.153Z,100420.75
2019-04-05T03:51:59.432Z,100427.72
2019-04-05T03:54:31.398Z,100417.70
2019-04-05T03:57:03.145Z,100426.87
2019-04-05T03:59:35.466Z,100426.00
2019-04-05T04:02:07.457Z,100431.23
2019-04-05T04:04:39.138Z,100437.80
2019-04-05T04:07:11.232Z,100436.48
2019-04-05T04:09:42.970Z,100433.02
2019-04-05T04:12:15.671Z,100439.56
2019-04-05T04:14:47.229Z,100443.94
2019-04-05T04:17:19.164Z,100443.91
2019-04-05T04:19:51.992Z,100450.48
2019-04-05T04:22:29.939Z,100451.37
2019-04-05T04:25:01.688Z,100459.20
2019-04-05T04:27:33.780Z,100460.08
2019-04-05T04:30:05.786Z,100459.64
2019-04-05T04:32:37.656Z,100471.01
2019-04-05T04:35:09.294Z,100466.20
2019-04-05T04:37:41.274Z,100464.89
2019-04-05T04:40:12.826Z,100468.82
2019-04-05T04:42:44.548Z,100472.31
2019-04-05T04:45:17.343Z,100478.44
2019-04-05T04:47:49.201Z,100474.06
2019-04-05T04:50:21.526Z,100477.13
2019-04-05T04:52:53.675Z,100478.89
2019-04-05T04:55:26.700Z,100479.30
2019-04-05T04:57:58.425Z,100478.88
2019-04-05T05:00:30.068Z,100486.30
2019-04-05T05:03:01.661Z,100485.42
2019-04-05T05:05:33.133Z,100488.05
2019-04-05T05:08:05.419Z,100496.33
2019-04-05T05:10:37.189Z,100499.85
2019-04-05T05:13:09.030Z,100501.95
2019-04-05T05:15:40.918Z,100509.34
2019-04-05T05:18:12.827Z,100513.30
2019-04-05T05:20:44.561Z,100508.02
2019-04-05T05:23:16.501Z,100502.70
2019-04-05T05:25:48.214Z,100507.93
2019-04-05T05:28:20.208Z,100513.91
2019-04-05T05:30:52.403Z,100508.60
2019-04-05T05:33:24.150Z,100504.30
2019-04-05T05:35:56.134Z,100503.58
2019-04-05T05:38:28.128Z,100499.85
2019-04-05T05:40:59.727Z,100506.34
2019-04-05T05:43:31.400Z,100506.80
2019-04-05T05:46:03.113Z,100507.25
2019-04-05T05:48:35.725Z,100504.41
2019-04-05T05:51:07.234Z,100509.16
2019-04-05T05:53:39.344Z,100513.72
2019-04-05T05:56:11.699Z,100507.93
2019-04-05T05:58:45.933Z,100505.66
2019-04-05T06:01:17.475Z,100521.30
2019-04-05T06:03:49.321Z,100515.64
2019-04-05T06:06:20.872Z,100514.67
2019-04-05T06:08:52.456Z,100520.81
2019-04-05T06:11:24.109Z,100519.69
2019-04-05T06:13:55.895Z,100519.66
2019-04-05T06:16:27.586Z,100527.20
2019-04-05T06:18:59.336Z,100524.39
2019-04-05T06:21:32.430Z,100530.53
2019-04-05T06:24:05.342Z,100535.67
2019-04-05T06:26:37.081Z,100528.84
2019-04-05T06:29:08.567Z,100532.34
2019-04-05T06:31:40.128Z,100526.89
2019-04-05T06:34:11.817Z,100536.81
2019-04-05T06:36:43.424Z,100532.92
2019-04-05T06:39:15.047Z,100537.91
2019-04-05T06:41:47.816Z,100528.83
2019-04-05T06:44:19.317Z,100521.23
2019-04-05T06:46:51.188Z,100527.02
2019-04-05T06:49:23.632Z,100529.86
2019-04-05T06:51:54.961Z,100524.78
2019-04-05T06:54:26.367Z,100530.30
2019-04-05T06:56:57.876Z,100518.58
2019-04-05T06:59:29.477Z,100517.46
2019-04-05T07:02:01.310Z,100527.09
2019-04-05T07:04:33.072Z,100524.45
2019-04-05T07:07:04.768Z,100527.91
2019-04-05T07:09:36.257Z,100528.76
2019-04-05T07:12:08.162Z,100530.23
2019-04-05T07:14:39.904Z,100530.16
2019-04-05T07:17:11.522Z,100537.28
2019-04-05T07:19:44.265Z,100539.20
2019-04-05T07:22:16.023Z,100539.25
2019-04-05T07:24:49.547Z,100541.49
2019-04-05T07:27:21.180Z,100548.31
2019-04-05T07:29:52.895Z,100550.62
2019-04-05T07:32:24.684Z,100546.42
2019-04-05T07:34:56.276Z,100539.34
2019-04-05T07:37:27.856Z,100540.19
2019-04-05T07:39:59.421Z,100533.69
2019-04-05T07:42:31.086Z,100535.57
2019-04-05T07:45:02.785Z,100532.44
2019-04-05T07:47:35.478Z,100540.40
2019-04-05T07:50:07.472Z,100540.40
2019-04-05T07:52:39.194Z,100541.13
2019-04-05T07:55:11.000Z,100524.95
2019-04-05T07:57:42.612Z,100535.16
2019-04-05T08:00:41.197Z,100538.87
2019-04-05T08:03:12.862Z,100546.84
2019-04-05T08:05:44.564Z,100555.61
2019-04-05T08:08:38.049Z,100562.41
2019-04-05T08:11:10.352Z,100560.71
2019-04-05T08:13:44.668Z,100561.28
2019-04-05T08:16:16.477Z,100553.70
2019-04-05T08:18:57.544Z,100565.20
2019-04-05T08:21:21.648Z,100559.88
2019-04-05T08:23:53.591Z,100559.56
2019-04-05T08:26:25.243Z,100560.39
2019-04-05T08:28:56.871Z,100552.83
2019-04-05T08:31:28.594Z,100546.64
2019-04-05T08:34:00.324Z,100547.62
2019-04-05T08:36:32.777Z,100552.55
2019-04-05T08:39:06.695Z,100548.02
2019-04-05T08:41:38.411Z,100544.05
2019-04-05T08:44:10.140Z,100530.59
2019-04-05T08:46:42.047Z,100532.86
2019-04-05T08:49:13.720Z,100538.19
2019-04-05T08:51:45.412Z,100531.77
2019-04-05T08:54:17.480Z,100532.69
2019-04-05T08:56:49.149Z,100534.02
2019-04-05T08:59:20.783Z,100534.16
2019-04-05T09:01:52.219Z,100535.57
2019-04-05T09:04:23.879Z,100539.24
2019-04-05T09:06:55.410Z,100531.69
2019-04-05T09:09:26.827Z,100527.91
2019-04-05T09:11:58.572Z,100529.16
2019-04-05T09:14:30.106Z,100520.63
2019-04-05T09:17:01.845Z,100528.45
2019-04-05T09:19:33.455Z,100539.59
2019-04-05T09:22:06.170Z,100532.08
2019-04-05T09:24:38.227Z,100536.36
2019-04-05T09:27:09.815Z,100535.34
2019-04-05T09:29:41.595Z,100526.06
2019-04-05T09:32:13.152Z,100525.39
2019-04-05T09:34:45.384Z,100529.16
2019-04-05T09:37:17.165Z,100529.78
2019-04-05T09:39:49.315Z,100518.08
2019-04-05T09:42:21.011Z,100532.16
2019-04-05T09:44:53.988Z,100530.59
2019-04-05T09:47:25.395Z,100529.81
2019-04-05T09:49:57.530Z,100529.75
2019-04-05T09:52:29.193Z,100525.96
2019-04-05T09:55:00.521Z,100529.08
2019-04-05T09:57:32.521Z,100528.16
2019-04-05T10:00:05.334Z,100530.39
2019-04-05T10:02:38.127Z,100528.70
2019-04-05T10:05:09.846Z,100519.48
2019-04-05T10:07:54.109Z,100525.68
2019-04-05T10:10:17.062Z,100527.14
2019-04-05T10:12:48.772Z,100534.19
2019-04-05T10:15:21.863Z,100534.70
2019-04-05T10:17:54.088Z,100540.41
2019-04-05T10:20:25.722Z,100532.77
2019-04-05T10:22:57.508Z,100533.80
2019-04-05T10:25:29.152Z,100532.19
2019-04-05T10:28:03.374Z,100528.39
2019-04-05T10:30:36.274Z,100531.32
2019-04-05T10:33:08.135Z,100534.16
2019-04-05T10:35:39.635Z,100540.81
2019-04-05T10:38:11.252Z,100542.98
2019-04-05T10:40:43.037Z,100547.28
2019-04-05T10:43:14.932Z,100531.63
2019-04-05T10:45:46.482Z,100535.63
2019-04-05T10:48:18.355Z,100538.11
2019-04-05T10:50:49.978Z,100533.09
2019-04-05T10:53:21.407Z,100538.41
2019-04-05T10:55:54.044Z,100536.55
2019-04-05T10:58:25.688Z,100536.94
2019-04-05T11:00:58.606Z,100533.45
2019-04-05T11:03:30.578Z,100540.11
2019-04-05T11:06:02.316Z,100536.47
2019-04-05T11:08:33.887Z,100528.66
2019-04-05T11:11:05.420Z,100529.67
2019-04-05T11:13:37.104Z,100529.55
2019-04-05T11:16:08.574Z,100523.88
2019-04-05T11:18:40.235Z,100526.50
2019-04-05T11:21:11.807Z,100521.22
2019-04-05T11:23:44.038Z,100526.73
2019-04-05T11:26:15.605Z,100527.19
2019-04-05T11:28:47.488Z,100524.02
2019-04-05T11:31:19.346Z,100519.44
2019-04-05T11:33:51.343Z,100511.59
2019-04-05T11:36:24.246Z,100516.75
2019-04-05T11:38:55.927Z,100517.00
2019-04-05T11:41:28.536Z,100507.00
2019-04-05T11:47:37.496Z,100503.32
2019-04-05T11:50:11.973Z,100503.16
2019-04-05T11:52:43.654Z,100498.73
2019-04-05T11:55:18.171Z,100509.66
2019-04-05T11:57:48.381Z,100495.45
2019-04-05T12:00:31.850Z,100497.98
2019-04-05T12:03:05.631Z,100496.16
2019-04-05T12:05:37.249Z,100489.78
2019-04-05T12:08:09.070Z,100497.00
2019-04-05T12:10:40.718Z,100494.35
2019-04-05T12:13:12.282Z,100489.23
2019-04-05T12:15:43.847Z,100494.98
2019-04-05T12:18:19.175Z,100499.10
2019-04-05T12:20:59.006Z,100502.37
2019-04-05T12:23:22.264Z,100501.15
2019-04-05T12:25:54.618Z,100506.55
2019-04-05T12:28:26.372Z,100499.91
2019-04-05T12:30:58.040Z,100498.20
2019-04-05T12:33:29.466Z,100502.31
2019-04-05T12:36:01.141Z,100495.38
2019-04-05T12:38:34.001Z,100495.77
2019-04-05T12:41:06.176Z,100494.51
2019-04-05T12:43:37.719Z,100498.80
2019-04-05T12:46:09.488Z,100483.28
2019-04-05T12:48:41.161Z,100482.28
2019-04-05T12:51:15.450Z,100481.91
2019-04-05T12:53:46.710Z,100479.03
2019-04-05T12:56:18.472Z,100479.48
2019-04-05T12:58:53.682Z,100476.66
2019-04-05T13:01:25.657Z,100472.73
2019-04-05T13:03:58.814Z,100472.25
2019-04-05T13:06:31.569Z,100473.25
2019-04-05T13:09:05.602Z,100466.80
2019-04-05T13:11:36.798Z,100463.74
2019-04-05T13:14:08.374Z,100468.26
2019-04-05T13:16:40.266Z,100465.77
2019-04-05T13:19:11.778Z,100460.73
2019-04-05T13:21:43.737Z,100458.71
2019-04-05T13:24:15.356Z,100458.55
2019-04-05T13:26:49.065Z,100459.11
2019-04-05T13:29:20.734Z,100456.25
2019-04-05T13:31:52.469Z,100453.81
2019-04-05T13:34:25.880Z,100464.06
2019-04-05T13:36:59.336Z,100463.45
2019-04-05T13:39:30.859Z,100461.27
2019-04-05T13:42:02.659Z,100461.86
2019-04-05T13:44:34.976Z,100456.25
2019-04-05T13:47:08.470Z,100460.50
2019-04-05T13:49:40.650Z,100458.84
2019-04-05T13:52:13.321Z,100461.84
2019-04-05T13:54:48.300Z,100451.70
2019-04-05T13:57:19.713Z,100455.52
2019-04-05T13:59:51.511Z,100450.39
2019-04-05T14:02:24.633Z,100457.42
2019-04-05T14:04:56.432Z,100462.92
2019-04-05T14:07:27.829Z,100453.23
2019-04-05T14:09:59.747Z,100460.28
2019-04-05T14:12:31.492Z,100452.17
2019-04-05T14:15:03.143Z,100456.59
2019-04-05T14:17:34.717Z,100455.66
2019-04-05T14:20:09.110Z,100463.45
2019-04-05T14:22:40.586Z,100454.86
2019-04-05T14:25:12.852Z,100457.14
2019-04-05T14:27:44.311Z,100453.85
2019-04-05T14:30:16.157Z,100448.27
2019-04-05T14:32:50.854Z,100452.42
2019-04-05T14:35:24.448Z,100463.87
2019-04-05T14:37:55.257Z,100447.05
2019-04-05T14:40:29.373Z,100454.11
2019-04-05T14:43:00.785Z,100455.49
2019-04-05T14:45:32.427Z,100447.34
2019-04-05T14:48:04.549Z,100450.89
2019-04-05T14:50:36.305Z,100447.27
2019-04-05T14:53:07.854Z,100453.61
2019-04-05T14:55:39.614Z,100457.92
2019-04-05T14:58:11.267Z,100452.19
2019-04-05T15:00:44.447Z,100463.34
2019-04-05T15:03:16.166Z,100456.83
2019-04-05T15:05:47.658Z,100453.06
2019-04-05T15:08:20.665Z,100453.86
2019-04-05T15:10:56.546Z,100455.62
2019-04-05T15:13:25.967Z,100471.68
2019-04-05T15:15:57.687Z,100458.45
2019-04-05T15:18:29.398Z,100463.16
2019-04-05T15:21:01.363Z,100460.94
2019-04-05T15:23:33.965Z,100465.22
2019-04-05T15:26:06.169Z,100461.67
2019-04-05T15:28:39.086Z,100458.00
2019-04-05T15:31:10.787Z,100460.80
2019-04-05T15:33:42.697Z,100469.76
2019-04-05T15:36:14.450Z,100473.80
2019-04-05T15:38:46.340Z,100458.83
2019-04-05T15:41:18.045Z,100464.63
2019-04-05T15:43:49.916Z,100463.11
2019-04-05T15:46:21.502Z,100468.03
2019-04-05T15:48:53.133Z,100468.46
2019-04-05T15:51:25.142Z,100472.45
2019-04-05T15:53:56.945Z,100467.32
2019-04-05T15:56:28.543Z,100473.80
2019-04-05T15:59:03.643Z,100471.21
2019-04-05T16:01:34.251Z,100472.59
2019-04-05T16:04:07.864Z,100473.27
2019-04-05T16:06:39.575Z,100467.87
2019-04-05T16:09:13.199Z,100469.27
2019-04-05T16:11:44.924Z,100480.59
2019-04-05T16:14:17.637Z,100477.58
2019-04-05T16:16:49.532Z,100484.84
2019-04-05T16:19:20.994Z,100481.03
2019-04-05T16:21:52.746Z,100482.75
2019-04-05T16:24:24.198Z,100487.42
2019-04-05T16:26:55.954Z,100481.89
2019-04-05T16:29:27.597Z,100480.02
2019-04-05T16:31:59.212Z,100477.64
2019-04-05T16:34:30.792Z,100481.98
2019-04-05T16:37:02.469Z,100477.33
2019-04-05T16:39:34.193Z,100485.23
2019-04-05T16:42:05.865Z,100487.97
2019-04-05T16:44:38.834Z,100490.35
2019-04-05T16:47:10.499Z,100492.73
2019-04-05T16:49:42.196Z,100496.97
2019-04-05T16:52:13.812Z,100491.47
2019-04-05T16:54:45.665Z,100487.92
2019-04-05T16:57:17.479Z,100495.11
2019-04-05T16:59:49.322Z,100495.28
2019-04-05T17:02:20.927Z,100502.11
2019-04-05T17:04:52.547Z,100502.77
2019-04-05T17:07:24.283Z,100501.28
2019-04-05T17:09:56.131Z,100510.69
2019-04-05T17:12:27.738Z,100507.36
2019-04-05T17:14:59.322Z,100512.78
2019-04-05T17:17:31.040Z,100514.82
2019-04-05T17:20:02.716Z,100511.52
2019-04-05T17:22:34.706Z,100515.89
2019-04-05T17:25:07.377Z,100518.45
2019-04-05T17:27:39.172Z,100521.63
2019-04-05T17:30:11.359Z,100521.58
2019-04-05T17:32:43.293Z,100524.06
2019-04-05T17:35:15.116Z,100529.66
2019-04-05T17:37:46.741Z,100530.38
2019-04-05T17:40:18.459Z,100535.45
2019-04-05T17:42:50.102Z,100530.64
2019-04-05T17:45:21.904Z,100535.75
2019-04-05T17:47:53.736Z,100536.17
2019-04-05T17:50:40.797Z,100545.56
2019-04-05T17:53:13.518Z,100546.23
2019-04-05T17:55:45.792Z,100539.97
2019-04-05T17:58:18.990Z,100555.16
2019-04-05T18:00:50.923Z,100554.84
2019-04-05T18:03:22.527Z,100559.79
2019-04-05T18:05:54.040Z,100565.36
2019-04-05T18:08:25.451Z,100578.16
2019-04-05T18:10:56.953Z,100563.73
2019-04-05T18:13:28.696Z,100563.73
2019-04-05T18:16:00.426Z,100584.05
2019-04-05T18:18:31.830Z,100580.18
2019-04-05T18:21:03.887Z,100584.43
2019-04-05T18:23:36.184Z,100591.69
2019-04-05T18:26:07.651Z,100593.46
2019-04-05T18:28:39.071Z,100600.84
2019-04-05T18:31:11.030Z,100596.65
2019-04-05T18:33:42.911Z,100608.11
2019-04-05T18:36:14.485Z,100606.21
2019-04-05T18:38:45.940Z,100612.57
2019-04-05T18:41:17.333Z,100613.91
2019-04-05T18:43:49.516Z,100609.61
2019-04-05T18:46:21.272Z,100619.17
2019-04-05T18:48:53.138Z,100618.90
2019-04-05T18:51:25.680Z,100612.01
2019-04-05T18:53:57.244Z,100624.98
2019-04-05T18:56:28.837Z,100628.69
2019-04-05T18:59:00.266Z,100623.50
2019-04-05T19:01:31.991Z,100626.86
2019-04-05T19:04:05.477Z,100630.06
2019-04-05T19:06:37.185Z,100623.58
2019-04-05T19:09:12.042Z,100632.54
2019-04-05T19:11:43.767Z,100636.67
2019-04-05T19:14:15.554Z,100641.63
2019-04-05T19:16:47.246Z,100639.03
2019-04-05T19:19:18.931Z,100635.66
2019-04-05T19:21:51.174Z,100642.03
2019-04-05T19:24:22.590Z,100643.94
2019-04-05T19:26:54.495Z,100643.56
2019-04-05T19:29:26.215Z,100647.10
2019-04-05T19:49:52.137Z,100660.18
2019-04-05T19:52:23.909Z,100667.33
2019-04-05T19:54:55.526Z,100659.47
2019-04-05T19:57:27.193Z,100667.95
2019-04-05T19:59:59.077Z,100660.45
2019-04-05T20:02:30.678Z,100667.55
2019-04-05T20:05:02.877Z,100675.05
2019-04-05T20:07:34.618Z,100675.97
2019-04-05T20:10:06.831Z,100675.75
2019-04-05T20:12:38.432Z,100682.02
2019-04-05T20:15:11.038Z,100678.17
2019-04-05T20:17:44.724Z,100689.95
2019-04-05T20:20:16.502Z,100684.71
2019-04-05T20:22:48.359Z,100690.96
2019-04-05T20:25:19.766Z,100691.89
2019-04-05T20:27:51.686Z,100697.67
2019-04-05T20:30:23.393Z,100690.33
2019-04-05T20:32:55.159Z,100688.66
2019-04-05T20:35:26.741Z,100691.34
2019-04-05T20:37:58.654Z,100693.63
2019-04-05T20:40:30.623Z,100696.75
2019-04-05T20:43:02.419Z,100695.19
2019-04-05T20:45:34.128Z,100694.30
2019-04-05T20:48:05.911Z,100696.51
2019-04-05T20:50:37.653Z,100689.49
2019-04-05T20:53:09.302Z,100690.38
2019-04-05T20:55:41.054Z,100697.95
2019-04-05T20:58:12.840Z,100697.63
2019-04-05T21:00:44.368Z,100699.90
2019-04-05T21:03:16.231Z,100694.69
2019-04-05T21:05:47.828Z,100697.77
2019-04-05T21:08:19.621Z,100701.95
2019-04-05T21:10:51.020Z,100705.45
2019-04-05T21:13:22.754Z,100702.40
2019-04-05T21:15:54.409Z,100707.76
2019-04-05T21:18:25.880Z,100714.03
2019-04-05T21:20:57.617Z,100714.10
2019-04-05T21:23:29.501Z,100712.81
2019-04-05T21:26:01.527Z,100724.44
2019-04-05T21:28:33.075Z,100721.83
2019-04-05T21:31:04.735Z,100721.95
2019-04-05T21:33:36.284Z,100723.78
2019-04-05T21:36:08.239Z,100727.37
2019-04-05T21:38:39.920Z,100726.23
2019-04-05T21:41:13.183Z,100730.23
2019-04-05T21:43:44.886Z,100728.97
2019-04-05T21:46:16.943Z,100729.88
2019-04-05T21:48:48.827Z,100734.31
2019-04-05T21:51:24.705Z,100733.48
2019-04-05T21:53:56.432Z,100734.05
2019-04-05T21:56:27.836Z,100734.95
2019-04-05T21:58:59.671Z,100738.47
2019-04-05T22:01:31.265Z,100739.79
2019-04-05T22:04:05.201Z,100741.20
2019-04-05T22:06:37.113Z,100742.23
2019-04-05T22:09:09.338Z,100741.36
2019-04-05T22:11:41.216Z,100741.41
2019-04-05T22:14:13.217Z,100743.15
2019-04-05T22:16:44.846Z,100744.97
2019-04-05T22:19:16.691Z,100739.75
2019-04-05T22:21:49.228Z,100746.29
2019-04-05T22:24:20.893Z,100747.69
2019-04-05T22:26:52.370Z,100749.86
2019-04-05T22:29:23.835Z,100746.47
2019-04-05T22:31:55.547Z,100750.50
2019-04-05T22:34:27.324Z,100752.33
2019-04-05T22:36:59.196Z,100755.83
2019-04-05T22:39:30.993Z,100751.48
2019-04-05T22:42:05.704Z,100753.30
2019-04-05T22:44:38.981Z,100753.28
2019-04-05T22:47:08.180Z,100761.77
2019-04-05T22:49:38.371Z,100755.17
2019-04-05T22:52:08.577Z,100755.15
2019-04-05T22:54:38.966Z,100754.73
2019-04-05T22:57:09.413Z,100753.47
2019-04-05T22:59:39.741Z,100754.86
2019-04-05T23:02:10.143Z,100753.48
2019-04-05T23:04:40.605Z,100756.95
2019-04-05T23:07:10.906Z,100759.25
2019-04-05T23:09:41.119Z,100760.03
2019-04-05T23:12:11.326Z,100760.55
2019-04-05T23:14:41.608Z,100763.75
2019-04-05T23:17:12.036Z,100765.06
2019-04-05T23:19:42.324Z,100763.70
2019-04-05T23:22:12.515Z,100768.11
2019-04-05T23:24:43.114Z,100767.83
2019-04-05T23:27:13.444Z,100768.34
2019-04-05T23:29:43.669Z,100768.23
2019-04-05T23:32:14.190Z,100767.80
2019-04-05T23:34:44.501Z,100764.44
2019-04-05T23:37:14.797Z,100764.52
2019-04-05T23:39:45.391Z,100770.62
2019-04-05T23:42:15.779Z,100764.47
2019-04-05T23:44:46.327Z,100765.42
2019-04-05T23:47:16.788Z,100761.45
2019-04-05T23:49:47.169Z,100764.64
2019-04-05T23:52:17.554Z,100765.59
2019-04-05T23:54:47.707Z,100759.47
2019-04-05T23:57:17.948Z,100762.00
2019-04-05T23:59:49.301Z,100767.79
